SWA223 KDAL-KOKC
Flight info
| Callsign | SWA223 |
|---|---|
| Flight time | 0h 39m |
| Altitude | 28000 |
| Route | SWTSR7 ZEMMA TSDEL3 |
| Aircraft | B738/M-SDE2E3FGHIRWXY/LB1 |
Departure
| Time | 2026-04-20 07:47 |
|---|---|
| Airport | Dallas Love Field (KDAL) |
Arrival
| Time | 2026-04-20 08:26 |
|---|---|
| Airport | OKC Will Rogers World Airport (KOKC) |
| Time | Latitude | Longitude | Altitude | Speed | Heading |
|---|---|---|---|---|---|
| 2026-04-20 07:40 | 32.84648 | -96.84844 | 490 ft | 0 kts | 181° |
| 2026-04-20 07:42 | 32.84652 | -96.84844 | 481 ft | 2 kts | 181° |
| 2026-04-20 07:42 | 32.84668 | -96.84843 | 484 ft | 2 kts | 181° |
| 2026-04-20 07:42 | 32.84684 | -96.84843 | 483 ft | 2 kts | 179° |
| 2026-04-20 07:43 | 32.84698 | -96.84849 | 485 ft | 2 kts | 88° |
| 2026-04-20 07:43 | 32.84698 | -96.84853 | 485 ft | 0 kts | 88° |
| 2026-04-20 07:44 | 32.84705 | -96.84842 | 485 ft | 4 kts | 35° |
| 2026-04-20 07:44 | 32.84784 | -96.84805 | 486 ft | 20 kts | 356° |
| 2026-04-20 07:44 | 32.84915 | -96.84923 | 486 ft | 26 kts | 316° |
| 2026-04-20 07:45 | 32.85042 | -96.85068 | 486 ft | 24 kts | 316° |
| 2026-04-20 07:45 | 32.85159 | -96.85205 | 492 ft | 23 kts | 316° |
| 2026-04-20 07:45 | 32.85272 | -96.85334 | 489 ft | 22 kts | 316° |
| 2026-04-20 07:45 | 32.85421 | -96.85508 | 478 ft | 37 kts | 315° |
| 2026-04-20 07:46 | 32.85601 | -96.85717 | 484 ft | 22 kts | 316° |
| 2026-04-20 07:46 | 32.85701 | -96.85666 | 480 ft | 20 kts | 91° |
| 2026-04-20 07:46 | 32.85536 | -96.85455 | 479 ft | 73 kts | 135° |
| 2026-04-20 07:46 | 32.84974 | -96.84802 | 490 ft | 154 kts | 136° |
| 2026-04-20 07:47 | 32.84098 | -96.83799 | 1108 ft | 184 kts | 137° |
| 2026-04-20 07:47 | 32.83175 | -96.82783 | 2490 ft | 169 kts | 138° |
| 2026-04-20 07:47 | 32.82309 | -96.81843 | 3645 ft | 174 kts | 140° |
| 2026-04-20 07:47 | 32.81338 | -96.80818 | 4047 ft | 202 kts | 140° |
| 2026-04-20 07:48 | 32.80214 | -96.79629 | 4289 ft | 232 kts | 140° |
| 2026-04-20 07:48 | 32.78944 | -96.78277 | 4772 ft | 252 kts | 140° |
| 2026-04-20 07:48 | 32.77618 | -96.76862 | 5518 ft | 260 kts | 140° |
| 2026-04-20 07:48 | 32.76264 | -96.75416 | 5892 ft | 264 kts | 140° |
| 2026-04-20 07:49 | 32.74907 | -96.73900 | 6443 ft | 271 kts | 137° |
| 2026-04-20 07:49 | 32.73571 | -96.72347 | 7286 ft | 274 kts | 137° |
| 2026-04-20 07:49 | 32.72201 | -96.70753 | 8110 ft | 278 kts | 137° |
| 2026-04-20 07:49 | 32.70807 | -96.69131 | 8876 ft | 284 kts | 136° |
| 2026-04-20 07:50 | 32.69392 | -96.67441 | 9591 ft | 292 kts | 133° |
| 2026-04-20 07:50 | 32.68393 | -96.65319 | 10276 ft | 303 kts | 105° |
| 2026-04-20 07:50 | 32.68148 | -96.62742 | 10529 ft | 328 kts | 91° |
| 2026-04-20 07:50 | 32.68132 | -96.59934 | 10716 ft | 352 kts | 90° |
| 2026-04-20 07:51 | 32.68414 | -96.56961 | 10862 ft | 374 kts | 71° |
| 2026-04-20 07:51 | 32.69711 | -96.54276 | 11459 ft | 379 kts | 47° |
| 2026-04-20 07:51 | 32.71742 | -96.52388 | 12192 ft | 377 kts | 25° |
| 2026-04-20 07:51 | 32.74206 | -96.51358 | 13005 ft | 375 kts | 14° |
| 2026-04-20 07:52 | 32.76731 | -96.50502 | 13693 ft | 379 kts | 14° |
| 2026-04-20 07:52 | 32.79302 | -96.49742 | 14291 ft | 383 kts | 4° |
| 2026-04-20 07:52 | 32.81939 | -96.49959 | 14891 ft | 380 kts | 343° |
| 2026-04-20 07:52 | 32.84356 | -96.51162 | 15594 ft | 377 kts | 326° |
| 2026-04-20 07:53 | 32.86442 | -96.53055 | 16253 ft | 378 kts | 319° |
| 2026-04-20 07:53 | 32.88477 | -96.55060 | 16822 ft | 382 kts | 319° |
| 2026-04-20 07:53 | 32.90524 | -96.57103 | 17418 ft | 386 kts | 319° |
| 2026-04-20 07:53 | 32.92558 | -96.59132 | 18025 ft | 388 kts | 319° |
| 2026-04-20 07:54 | 32.94641 | -96.61198 | 18626 ft | 391 kts | 319° |
| 2026-04-20 07:54 | 32.96745 | -96.63274 | 19143 ft | 394 kts | 319° |
| 2026-04-20 07:54 | 32.98867 | -96.65361 | 19691 ft | 396 kts | 319° |
| 2026-04-20 07:54 | 33.00990 | -96.67443 | 20303 ft | 396 kts | 318° |
| 2026-04-20 07:55 | 33.03122 | -96.69533 | 20817 ft | 398 kts | 318° |
| 2026-04-20 07:55 | 33.05268 | -96.71637 | 21301 ft | 401 kts | 318° |
| 2026-04-20 07:55 | 33.07434 | -96.73761 | 21801 ft | 404 kts | 318° |
| 2026-04-20 07:55 | 33.09606 | -96.75893 | 22258 ft | 406 kts | 318° |
| 2026-04-20 07:56 | 33.11771 | -96.78019 | 22291 ft | 411 kts | 318° |
| 2026-04-20 07:56 | 33.13971 | -96.80181 | 22318 ft | 409 kts | 318° |
| 2026-04-20 07:56 | 33.16165 | -96.82337 | 22303 ft | 408 kts | 318° |
| 2026-04-20 07:56 | 33.18360 | -96.84496 | 22307 ft | 408 kts | 318° |
| 2026-04-20 07:57 | 33.20554 | -96.86656 | 22304 ft | 410 kts | 318° |
| 2026-04-20 07:57 | 33.22751 | -96.88822 | 22312 ft | 410 kts | 318° |
| 2026-04-20 07:57 | 33.24958 | -96.90998 | 22315 ft | 411 kts | 318° |
| 2026-04-20 07:57 | 33.27164 | -96.93175 | 22313 ft | 412 kts | 318° |
| 2026-04-20 07:58 | 33.29376 | -96.95360 | 22311 ft | 413 kts | 318° |
| 2026-04-20 07:58 | 33.31591 | -96.97548 | 22314 ft | 413 kts | 318° |
| 2026-04-20 07:58 | 33.33775 | -96.99707 | 22313 ft | 413 kts | 318° |
| 2026-04-20 07:58 | 33.35986 | -97.01895 | 22311 ft | 413 kts | 318° |
| 2026-04-20 07:59 | 33.38200 | -97.04087 | 22306 ft | 412 kts | 318° |
| 2026-04-20 07:59 | 33.40405 | -97.06271 | 22308 ft | 412 kts | 318° |
| 2026-04-20 07:59 | 33.42637 | -97.08430 | 22300 ft | 413 kts | 322° |
| 2026-04-20 07:59 | 33.45236 | -97.09926 | 22347 ft | 419 kts | 339° |
| 2026-04-20 08:00 | 33.48122 | -97.10537 | 22305 ft | 427 kts | 355° |
| 2026-04-20 08:00 | 33.51061 | -97.10343 | 22328 ft | 430 kts | 1° |
| 2026-04-20 08:00 | 33.54039 | -97.09961 | 22337 ft | 430 kts | 2° |
| 2026-04-20 08:00 | 33.57010 | -97.09534 | 22328 ft | 430 kts | 2° |
| 2026-04-20 08:01 | 33.59976 | -97.09105 | 22331 ft | 429 kts | 2° |
| 2026-04-20 08:01 | 33.62944 | -97.08689 | 22339 ft | 429 kts | 2° |
| 2026-04-20 08:01 | 33.65907 | -97.08289 | 22341 ft | 428 kts | 2° |
| 2026-04-20 08:01 | 33.68867 | -97.07901 | 22331 ft | 428 kts | 2° |
| 2026-04-20 08:02 | 33.71828 | -97.07520 | 22338 ft | 428 kts | 1° |
| 2026-04-20 08:02 | 33.74756 | -97.07147 | 22339 ft | 428 kts | 1° |
| 2026-04-20 08:02 | 33.77717 | -97.06771 | 22312 ft | 428 kts | 1° |
| 2026-04-20 08:02 | 33.80679 | -97.06396 | 22300 ft | 428 kts | 1° |
| 2026-04-20 08:03 | 33.83642 | -97.06019 | 22301 ft | 428 kts | 1° |
| 2026-04-20 08:03 | 33.86600 | -97.05643 | 22307 ft | 428 kts | 1° |
| 2026-04-20 08:03 | 33.89555 | -97.05267 | 22303 ft | 427 kts | 1° |
| 2026-04-20 08:03 | 33.92514 | -97.04889 | 22302 ft | 427 kts | 1° |
| 2026-04-20 08:04 | 33.95472 | -97.04512 | 22312 ft | 427 kts | 1° |
| 2026-04-20 08:04 | 33.98430 | -97.04134 | 22311 ft | 427 kts | 1° |
| 2026-04-20 08:04 | 34.01383 | -97.03756 | 22311 ft | 427 kts | 1° |
| 2026-04-20 08:04 | 34.04293 | -97.03384 | 22314 ft | 427 kts | 1° |
| 2026-04-20 08:05 | 34.07252 | -97.03005 | 22309 ft | 427 kts | 1° |
| 2026-04-20 08:05 | 34.10200 | -97.02627 | 22313 ft | 427 kts | 1° |
| 2026-04-20 08:05 | 34.13158 | -97.02248 | 22307 ft | 427 kts | 1° |
| 2026-04-20 08:05 | 34.16107 | -97.01870 | 22311 ft | 426 kts | 1° |
| 2026-04-20 08:06 | 34.19054 | -97.01491 | 22309 ft | 426 kts | 1° |
| 2026-04-20 08:06 | 34.22002 | -97.01112 | 22310 ft | 426 kts | 1° |
| 2026-04-20 08:06 | 34.24952 | -97.00733 | 22306 ft | 426 kts | 1° |
| 2026-04-20 08:06 | 34.27863 | -97.00359 | 22333 ft | 426 kts | 1° |
| 2026-04-20 08:07 | 34.30809 | -96.99979 | 22323 ft | 425 kts | 1° |
| 2026-04-20 08:07 | 34.33697 | -96.99604 | 22307 ft | 409 kts | 1° |
| 2026-04-20 08:07 | 34.36472 | -96.99270 | 22295 ft | 392 kts | 357° |
| 2026-04-20 08:07 | 34.39096 | -96.99617 | 22124 ft | 372 kts | 340° |
| 2026-04-20 08:08 | 34.41425 | -97.00807 | 21917 ft | 356 kts | 329° |
| 2026-04-20 08:08 | 34.43608 | -97.02199 | 21366 ft | 356 kts | 328° |
| 2026-04-20 08:08 | 34.45772 | -97.03611 | 21021 ft | 351 kts | 328° |
| 2026-04-20 08:08 | 34.47917 | -97.05012 | 20596 ft | 350 kts | 328° |
| 2026-04-20 08:09 | 34.50059 | -97.06403 | 20190 ft | 348 kts | 329° |
| 2026-04-20 08:09 | 34.52160 | -97.07760 | 19793 ft | 346 kts | 329° |
| 2026-04-20 08:09 | 34.54287 | -97.09128 | 19401 ft | 345 kts | 329° |
| 2026-04-20 08:09 | 34.56406 | -97.10489 | 18777 ft | 349 kts | 329° |
| 2026-04-20 08:10 | 34.58555 | -97.11868 | 18265 ft | 349 kts | 329° |
| 2026-04-20 08:10 | 34.60708 | -97.13248 | 17800 ft | 347 kts | 329° |
| 2026-04-20 08:10 | 34.62835 | -97.14610 | 17367 ft | 345 kts | 329° |
| 2026-04-20 08:10 | 34.64948 | -97.15965 | 16955 ft | 342 kts | 330° |
| 2026-04-20 08:11 | 34.67044 | -97.17310 | 16548 ft | 339 kts | 330° |
| 2026-04-20 08:11 | 34.69095 | -97.18627 | 16140 ft | 337 kts | 330° |
| 2026-04-20 08:11 | 34.71157 | -97.19953 | 15754 ft | 335 kts | 330° |
| 2026-04-20 08:11 | 34.73213 | -97.21274 | 15360 ft | 333 kts | 330° |
| 2026-04-20 08:12 | 34.75251 | -97.22585 | 14967 ft | 331 kts | 330° |
| 2026-04-20 08:12 | 34.77281 | -97.23891 | 14577 ft | 329 kts | 330° |
| 2026-04-20 08:12 | 34.79282 | -97.25229 | 14166 ft | 328 kts | 328° |
| 2026-04-20 08:12 | 34.81234 | -97.26683 | 13714 ft | 327 kts | 327° |
| 2026-04-20 08:13 | 34.83141 | -97.28142 | 13508 ft | 319 kts | 327° |
| 2026-04-20 08:13 | 34.84998 | -97.29553 | 13349 ft | 310 kts | 327° |
| 2026-04-20 08:13 | 34.86786 | -97.30900 | 13212 ft | 302 kts | 327° |
| 2026-04-20 08:13 | 34.88545 | -97.32219 | 13071 ft | 293 kts | 327° |
| 2026-04-20 08:14 | 34.90267 | -97.33513 | 12831 ft | 289 kts | 327° |
| 2026-04-20 08:14 | 34.91973 | -97.34809 | 12518 ft | 289 kts | 327° |
| 2026-04-20 08:14 | 34.93673 | -97.36104 | 12196 ft | 288 kts | 327° |
| 2026-04-20 08:14 | 34.95367 | -97.37395 | 11890 ft | 287 kts | 327° |
| 2026-04-20 08:15 | 34.97057 | -97.38683 | 11583 ft | 286 kts | 327° |
| 2026-04-20 08:15 | 34.98744 | -97.39969 | 11276 ft | 286 kts | 327° |
| 2026-04-20 08:15 | 35.00431 | -97.41256 | 10970 ft | 286 kts | 327° |
| 2026-04-20 08:15 | 35.02093 | -97.42523 | 10655 ft | 285 kts | 327° |
| 2026-04-20 08:16 | 35.03774 | -97.43806 | 10354 ft | 286 kts | 327° |
| 2026-04-20 08:16 | 35.05452 | -97.45086 | 10195 ft | 280 kts | 327° |
| 2026-04-20 08:16 | 35.07109 | -97.46307 | 9995 ft | 276 kts | 333° |
| 2026-04-20 08:16 | 35.08975 | -97.46829 | 9684 ft | 278 kts | 357° |
| 2026-04-20 08:17 | 35.10892 | -97.46913 | 9429 ft | 276 kts | 356° |
| 2026-04-20 08:17 | 35.12811 | -97.47019 | 9141 ft | 275 kts | 356° |
| 2026-04-20 08:17 | 35.14719 | -97.47136 | 8865 ft | 275 kts | 355° |
| 2026-04-20 08:17 | 35.16603 | -97.47255 | 8594 ft | 274 kts | 355° |
| 2026-04-20 08:18 | 35.18502 | -97.47377 | 8325 ft | 273 kts | 355° |
| 2026-04-20 08:18 | 35.20401 | -97.47498 | 8045 ft | 273 kts | 355° |
| 2026-04-20 08:18 | 35.22294 | -97.47619 | 7777 ft | 272 kts | 355° |
| 2026-04-20 08:18 | 35.24166 | -97.47739 | 7661 ft | 266 kts | 355° |
| 2026-04-20 08:19 | 35.25994 | -97.47856 | 7517 ft | 260 kts | 355° |
| 2026-04-20 08:19 | 35.27773 | -97.47970 | 7412 ft | 253 kts | 355° |
| 2026-04-20 08:19 | 35.29510 | -97.48081 | 7286 ft | 247 kts | 355° |
| 2026-04-20 08:19 | 35.31206 | -97.48191 | 7029 ft | 248 kts | 355° |
| 2026-04-20 08:20 | 35.32922 | -97.48302 | 6815 ft | 246 kts | 355° |
| 2026-04-20 08:20 | 35.34630 | -97.48413 | 6571 ft | 246 kts | 355° |
| 2026-04-20 08:20 | 35.36342 | -97.48524 | 6318 ft | 246 kts | 354° |
| 2026-04-20 08:20 | 35.38051 | -97.48634 | 6071 ft | 246 kts | 354° |
| 2026-04-20 08:21 | 35.39764 | -97.48709 | 5768 ft | 248 kts | 357° |
| 2026-04-20 08:21 | 35.41502 | -97.48706 | 5451 ft | 251 kts | 357° |
| 2026-04-20 08:21 | 35.43253 | -97.48696 | 5151 ft | 253 kts | 357° |
| 2026-04-20 08:21 | 35.45022 | -97.48691 | 4822 ft | 256 kts | 357° |
| 2026-04-20 08:22 | 35.46798 | -97.48802 | 4452 ft | 253 kts | 344° |
| 2026-04-20 08:22 | 35.48309 | -97.49698 | 4155 ft | 232 kts | 312° |
| 2026-04-20 08:22 | 35.49214 | -97.51164 | 3906 ft | 209 kts | 288° |
| 2026-04-20 08:22 | 35.49649 | -97.52725 | 3897 ft | 179 kts | 275° |
| 2026-04-20 08:23 | 35.49696 | -97.54148 | 3734 ft | 157 kts | 257° |
| 2026-04-20 08:23 | 35.49478 | -97.55478 | 3166 ft | 160 kts | 243° |
| 2026-04-20 08:23 | 35.49012 | -97.56607 | 2962 ft | 138 kts | 229° |
| 2026-04-20 08:23 | 35.48432 | -97.57445 | 2857 ft | 130 kts | 221° |
| 2026-04-20 08:24 | 35.47740 | -97.58114 | 2741 ft | 125 kts | 211° |
| 2026-04-20 08:24 | 35.46962 | -97.58574 | 2594 ft | 125 kts | 199° |
| 2026-04-20 08:24 | 35.46118 | -97.58804 | 2414 ft | 125 kts | 188° |
| 2026-04-20 08:24 | 35.45266 | -97.58873 | 2235 ft | 124 kts | 185° |
| 2026-04-20 08:25 | 35.44387 | -97.58898 | 2061 ft | 128 kts | 181° |
| 2026-04-20 08:25 | 35.43481 | -97.58889 | 1875 ft | 132 kts | 181° |
| 2026-04-20 08:25 | 35.42545 | -97.58888 | 1697 ft | 135 kts | 180° |
| 2026-04-20 08:25 | 35.41603 | -97.58888 | 1517 ft | 136 kts | 180° |
| 2026-04-20 08:26 | 35.40658 | -97.58886 | 1349 ft | 135 kts | 180° |
| 2026-04-20 08:26 | 35.39784 | -97.58888 | 1294 ft | 106 kts | 181° |
| 2026-04-20 08:26 | 35.39345 | -97.58894 | 1294 ft | 35 kts | 180° |
| 2026-04-20 08:26 | 35.39216 | -97.58996 | 1294 ft | 22 kts | 274° |
| 2026-04-20 08:27 | 35.39219 | -97.59176 | 1294 ft | 21 kts | 269° |
| 2026-04-20 08:27 | 35.39216 | -97.59347 | 1296 ft | 18 kts | 270° |
| 2026-04-20 08:27 | 35.39220 | -97.59498 | 1296 ft | 17 kts | 289° |
| 2026-04-20 08:27 | 35.39327 | -97.59534 | 1299 ft | 17 kts | 355° |
| 2026-04-20 08:28 | 35.39434 | -97.59554 | 1300 ft | 14 kts | 354° |
| 2026-04-20 08:28 | 35.39452 | -97.59559 | 1300 ft | 0 kts | 346° |